createdAt,value
2016-09-12T00:00:33.450Z,1009.91
2016-09-12T00:01:33.341Z,1009.89
2016-09-12T00:02:33.364Z,1009.89
2016-09-12T00:03:33.323Z,1009.87
2016-09-12T00:04:33.312Z,1009.83
2016-09-12T00:05:33.306Z,1009.86
2016-09-12T00:06:33.298Z,1009.85
2016-09-12T00:07:33.328Z,1009.87
2016-09-12T00:08:33.293Z,1009.88
2016-09-12T00:09:33.274Z,1009.9
2016-09-12T00:10:33.308Z,1009.9
2016-09-12T00:11:33.258Z,1009.93
2016-09-12T00:12:33.269Z,1009.94
2016-09-12T00:13:33.244Z,1009.92
2016-09-12T00:14:33.276Z,1009.93
2016-09-12T00:15:33.229Z,1009.9
2016-09-12T00:16:33.220Z,1009.93
2016-09-12T00:17:33.211Z,1009.88
2016-09-12T00:18:33.204Z,1009.88
2016-09-12T00:19:33.193Z,1009.86
2016-09-12T00:20:33.187Z,1009.86
2016-09-12T00:21:33.183Z,1009.83
2016-09-12T00:22:33.375Z,1009.82
2016-09-12T00:23:33.164Z,1009.84
2016-09-12T00:24:33.153Z,1009.79
2016-09-12T00:25:33.146Z,1009.84
2016-09-12T00:26:33.145Z,1009.8
2016-09-12T00:27:33.130Z,1009.81
2016-09-12T00:28:33.154Z,1009.8
2016-09-12T00:29:33.315Z,1009.79
2016-09-12T00:30:33.185Z,1009.77
2016-09-12T00:31:33.100Z,1009.8
2016-09-12T00:32:33.092Z,1009.78
2016-09-12T00:33:33.079Z,1009.78
2016-09-12T00:34:33.081Z,1009.76
2016-09-12T00:35:33.069Z,1009.79
2016-09-12T00:36:33.080Z,1009.8
2016-09-12T00:37:33.051Z,1009.78
2016-09-12T00:38:33.042Z,1009.82
2016-09-12T00:39:33.037Z,1009.76
2016-09-12T00:40:33.026Z,1009.72
2016-09-12T00:41:33.014Z,1009.71
2016-09-12T00:42:33.182Z,1009.74
2016-09-12T00:43:32.998Z,1009.77
2016-09-12T00:44:32.992Z,1009.75
2016-09-12T00:45:32.984Z,1009.73
2016-09-12T00:46:32.982Z,1009.73
2016-09-12T00:47:32.973Z,1009.74
2016-09-12T00:48:32.960Z,1009.74
2016-09-12T00:49:32.949Z,1009.7
2016-09-12T00:50:32.942Z,1009.74
2016-09-12T00:51:32.941Z,1009.73
2016-09-12T00:52:32.926Z,1009.73
2016-09-12T00:53:32.919Z,1009.67
2016-09-12T00:54:32.923Z,1009.7
2016-09-12T00:55:32.902Z,1009.67
2016-09-12T00:56:32.890Z,1009.69
2016-09-12T00:57:32.892Z,1009.64
2016-09-12T00:58:32.897Z,1009.64
2016-09-12T00:59:32.869Z,1009.66
2016-09-12T01:00:32.859Z,1009.65
2016-09-12T01:01:32.851Z,1009.64
2016-09-12T01:02:32.842Z,1009.61
2016-09-12T01:03:32.838Z,1009.6
2016-09-12T01:04:32.826Z,1009.62
2016-09-12T01:05:32.823Z,1009.59
2016-09-12T01:06:32.814Z,1009.59
2016-09-12T01:07:32.804Z,1009.57
2016-09-12T01:08:32.807Z,1009.56
2016-09-12T01:09:32.788Z,1009.52
2016-09-12T01:10:32.779Z,1009.56
2016-09-12T01:11:32.775Z,1009.53
2016-09-12T01:12:32.814Z,1009.51
2016-09-12T01:13:32.767Z,1009.54
2016-09-12T01:14:32.742Z,1009.52
2016-09-12T01:15:32.736Z,1009.5
2016-09-12T01:16:32.736Z,1009.47
2016-09-12T01:17:32.718Z,1009.47
2016-09-12T01:18:32.744Z,1009.49
2016-09-12T01:19:32.702Z,1009.46
2016-09-12T01:20:32.693Z,1009.49
2016-09-12T01:21:32.688Z,1009.46
2016-09-12T01:22:32.680Z,1009.47
2016-09-12T01:23:32.674Z,1009.46
2016-09-12T01:24:32.660Z,1009.47
2016-09-12T01:25:32.651Z,1009.44
2016-09-12T01:26:32.642Z,1009.43
2016-09-12T01:27:32.635Z,1009.42
2016-09-12T01:28:32.633Z,1009.43
2016-09-12T01:29:32.618Z,1009.46
2016-09-12T01:30:32.610Z,1009.45
2016-09-12T01:31:32.601Z,1009.43
2016-09-12T01:32:32.592Z,1009.43
2016-09-12T01:33:32.585Z,1009.42
2016-09-12T01:34:32.574Z,1009.44
2016-09-12T01:35:32.568Z,1009.43
2016-09-12T01:36:32.559Z,1009.39
2016-09-12T01:37:32.552Z,1009.38
2016-09-12T01:38:32.547Z,1009.37
2016-09-12T01:39:32.534Z,1009.35
2016-09-12T01:40:32.529Z,1009.37
2016-09-12T01:41:32.880Z,1009.31
2016-09-12T01:42:32.508Z,1009.31
2016-09-12T01:43:32.500Z,1009.31
2016-09-12T01:44:32.491Z,1009.26
2016-09-12T01:45:32.485Z,1009.3
2016-09-12T01:46:32.478Z,1009.29
2016-09-12T01:47:32.465Z,1009.28
2016-09-12T01:48:32.464Z,1009.29
2016-09-12T01:49:32.451Z,1009.28
2016-09-12T01:50:32.443Z,1009.27
2016-09-12T01:51:32.447Z,1009.26
2016-09-12T01:52:32.431Z,1009.23
2016-09-12T01:53:32.415Z,1009.27
2016-09-12T01:54:32.412Z,1009.26
2016-09-12T01:55:32.398Z,1009.22
2016-09-12T01:56:32.392Z,1009.24
2016-09-12T01:57:32.379Z,1009.23
2016-09-12T01:58:32.377Z,1009.21
2016-09-12T01:59:32.373Z,1009.21
2016-09-12T02:00:32.357Z,1009.17
2016-09-12T02:01:32.349Z,1009.19
2016-09-12T02:02:32.341Z,1009.21
2016-09-12T02:03:32.331Z,1009.14
2016-09-12T02:04:32.322Z,1009.15
2016-09-12T02:05:32.311Z,1009.14
2016-09-12T02:06:32.303Z,1009.16
2016-09-12T02:07:32.301Z,1009.14
2016-09-12T02:08:32.289Z,1009.12
2016-09-12T02:09:32.277Z,1009.15
2016-09-12T02:10:32.471Z,1009.15
2016-09-12T02:11:32.307Z,1009.09
2016-09-12T02:12:32.253Z,1009.15
2016-09-12T02:13:32.241Z,1009.13
2016-09-12T02:14:32.240Z,1009.1
2016-09-12T02:15:32.248Z,1009.15
2016-09-12T02:16:32.217Z,1009.14
2016-09-12T02:17:32.209Z,1009.13
2016-09-12T02:18:32.202Z,1009.14
2016-09-12T02:19:32.191Z,1009.16
2016-09-12T02:20:32.182Z,1009.14
2016-09-12T02:21:32.180Z,1009.12
2016-09-12T02:22:32.373Z,1009.13
2016-09-12T02:23:32.156Z,1009.19
2016-09-12T02:24:32.147Z,1009.19
2016-09-12T02:25:32.142Z,1009.17
2016-09-12T02:26:32.131Z,1009.17
2016-09-12T02:27:32.122Z,1009.2
2016-09-12T02:28:32.122Z,1009.19
2016-09-12T02:29:32.106Z,1009.22
2016-09-12T02:30:32.125Z,1009.19
2016-09-12T02:31:32.106Z,1009.18
2016-09-12T02:32:32.088Z,1009.2
2016-09-12T02:33:32.071Z,1009.19
2016-09-12T02:34:32.068Z,1009.22
2016-09-12T02:35:32.075Z,1009.16
2016-09-12T02:36:32.048Z,1009.18
2016-09-12T02:37:32.068Z,1009.17
2016-09-12T02:38:32.028Z,1009.16
2016-09-12T02:39:32.025Z,1009.14
2016-09-12T02:40:32.011Z,1009.16
2016-09-12T02:41:32.002Z,1009.17
2016-09-12T02:42:31.991Z,1009.16
2016-09-12T02:43:31.989Z,1009.17
2016-09-12T02:44:31.977Z,1009.17
2016-09-12T02:45:31.969Z,1009.21
2016-09-12T02:46:31.959Z,1009.23
2016-09-12T02:47:31.952Z,1009.22
2016-09-12T02:48:31.942Z,1009.22
2016-09-12T02:49:31.932Z,1009.18
2016-09-12T02:50:31.929Z,1009.19
2016-09-12T02:51:31.915Z,1009.23
2016-09-12T02:52:31.907Z,1009.21
2016-09-12T02:53:31.907Z,1009.19
2016-09-12T02:54:31.887Z,1009.21
2016-09-12T02:55:31.893Z,1009.17
2016-09-12T02:56:31.872Z,1009.17
2016-09-12T02:57:31.936Z,1009.19
2016-09-12T02:58:31.852Z,1009.16
2016-09-12T02:59:31.914Z,1009.15
2016-09-12T03:00:31.833Z,1009.11
2016-09-12T03:01:31.828Z,1009.12
2016-09-12T03:02:31.817Z,1009.11
2016-09-12T03:03:31.942Z,1009.1
2016-09-12T03:04:31.802Z,1009.07
2016-09-12T03:05:32.249Z,1009.09
2016-09-12T03:06:31.786Z,1009.07
2016-09-12T03:07:31.775Z,1009.04
2016-09-12T03:08:31.766Z,1009.05
2016-09-12T03:09:31.761Z,1009.05
2016-09-12T03:10:31.752Z,1009
2016-09-12T03:11:31.738Z,1009.05
2016-09-12T03:12:31.744Z,1009.05
2016-09-12T03:13:31.738Z,1009.11
2016-09-12T03:14:31.724Z,1009.12
2016-09-12T03:15:31.709Z,1009.11
2016-09-12T03:16:31.695Z,1009.12
2016-09-12T03:17:31.687Z,1009.14
2016-09-12T03:18:31.689Z,1009.12
2016-09-12T03:19:31.674Z,1009.12
2016-09-12T03:20:31.660Z,1009.13
2016-09-12T03:21:31.654Z,1009.1
2016-09-12T03:22:31.645Z,1009.12
2016-09-12T03:23:31.636Z,1009.1
2016-09-12T03:24:31.624Z,1009.13
2016-09-12T03:25:31.617Z,1009.1
2016-09-12T03:26:31.605Z,1009.11
2016-09-12T03:27:31.596Z,1009.1
2016-09-12T03:28:31.591Z,1009.11
2016-09-12T03:29:31.581Z,1009.08
2016-09-12T03:30:31.599Z,1009.06
2016-09-12T03:31:31.566Z,1009.07
2016-09-12T03:32:31.556Z,1009.08
2016-09-12T03:33:31.544Z,1009.07
2016-09-12T03:34:31.546Z,1009.08
2016-09-12T03:35:31.528Z,1009.07
2016-09-12T03:36:31.525Z,1009.08
2016-09-12T03:37:31.518Z,1009.1
2016-09-12T03:38:31.514Z,1009.09
2016-09-12T03:39:31.503Z,1009.07
2016-09-12T03:40:31.488Z,1009.06
2016-09-12T03:41:31.475Z,1009.09
2016-09-12T03:42:31.471Z,1009.09
2016-09-12T03:43:31.459Z,1009.1
2016-09-12T03:44:31.457Z,1009.11
2016-09-12T03:45:31.445Z,1009.1
2016-09-12T03:46:31.453Z,1009.1
2016-09-12T03:47:31.422Z,1009.11
2016-09-12T03:48:31.473Z,1009.07
2016-09-12T03:49:31.402Z,1009.09
2016-09-12T03:50:31.394Z,1009.08
2016-09-12T03:51:31.385Z,1009.1
2016-09-12T03:52:31.399Z,1009.12
2016-09-12T03:53:31.377Z,1009.05
2016-09-12T03:54:31.364Z,1009.07
2016-09-12T03:55:31.349Z,1009.06
2016-09-12T03:56:31.350Z,1009.06
2016-09-12T03:57:31.335Z,1009.03
2016-09-12T03:58:31.326Z,1009.04
2016-09-12T03:59:31.321Z,1009.06
2016-09-12T04:00:31.330Z,1009.04
2016-09-12T04:01:31.303Z,1009.02
2016-09-12T04:02:31.287Z,1009.01
2016-09-12T04:03:31.289Z,1009.04
2016-09-12T04:04:31.268Z,1009.03
2016-09-12T04:05:31.296Z,1009.01
2016-09-12T04:06:31.258Z,1009.07
2016-09-12T04:07:31.243Z,1009.06
2016-09-12T04:08:31.239Z,1009.06
2016-09-12T04:09:31.226Z,1009.01
2016-09-12T04:10:31.217Z,1009.05
2016-09-12T04:11:31.208Z,1009.03
2016-09-12T04:12:31.202Z,1009.01
2016-09-12T04:13:31.192Z,1009.01
2016-09-12T04:14:31.180Z,1008.98
2016-09-12T04:15:31.242Z,1009.04
2016-09-12T04:16:31.160Z,1009.02
2016-09-12T04:17:31.184Z,1009.02
2016-09-12T04:18:31.144Z,1009.04
2016-09-12T04:19:31.139Z,1009.05
2016-09-12T04:20:31.127Z,1009.04
2016-09-12T04:21:31.129Z,1009.05
2016-09-12T04:22:31.312Z,1009.03
2016-09-12T04:23:31.130Z,1009.01
2016-09-12T04:24:31.090Z,1009.07
2016-09-12T04:25:31.093Z,1009.01
2016-09-12T04:26:31.079Z,1009.02
2016-09-12T04:27:31.062Z,1009.03
2016-09-12T04:28:31.057Z,1009.04
2016-09-12T04:29:31.043Z,1009.06
2016-09-12T04:30:31.057Z,1009.06
2016-09-12T04:31:31.031Z,1009.09
2016-09-12T04:32:31.044Z,1009.09
2016-09-12T04:33:31.032Z,1009.1
2016-09-12T04:34:31.006Z,1009.06
2016-09-12T04:35:31.067Z,1009.08
2016-09-12T04:36:30.990Z,1009.07
2016-09-12T04:37:30.973Z,1009.1
2016-09-12T04:38:30.961Z,1009.11
2016-09-12T04:39:30.954Z,1009.11
2016-09-12T04:40:30.944Z,1009.12
2016-09-12T04:41:31.050Z,1009.12
2016-09-12T04:42:30.931Z,1009.1
2016-09-12T04:43:30.923Z,1009.1
2016-09-12T04:44:30.914Z,1009.09
2016-09-12T04:45:30.907Z,1009.09
2016-09-12T04:46:30.894Z,1009.08
2016-09-12T04:47:30.889Z,1009.09
2016-09-12T04:48:30.883Z,1009.09
2016-09-12T04:49:30.868Z,1009.08
2016-09-12T04:50:31.067Z,1009.06
2016-09-12T04:51:30.845Z,1009.08
2016-09-12T04:52:30.843Z,1009.06
2016-09-12T04:53:30.829Z,1009.06
2016-09-12T04:54:30.820Z,1009.03
2016-09-12T04:55:30.808Z,1009.09
2016-09-12T04:56:30.797Z,1009.04
2016-09-12T04:57:30.790Z,1009.04
2016-09-12T04:58:30.781Z,1009
2016-09-12T04:59:30.790Z,1009.07
2016-09-12T05:00:30.777Z,1009.03
2016-09-12T05:01:30.752Z,1009.07
2016-09-12T05:02:30.761Z,1009.03
2016-09-12T05:03:30.748Z,1009.07
2016-09-12T05:04:30.762Z,1009.05
2016-09-12T05:05:30.863Z,1009.02
2016-09-12T05:06:30.708Z,1009.05
2016-09-12T05:07:30.700Z,1009
2016-09-12T05:08:30.713Z,1009.04
2016-09-12T05:09:30.677Z,1009.02
2016-09-12T05:10:30.673Z,1009.05
2016-09-12T05:11:30.807Z,1009.02
2016-09-12T05:12:30.657Z,1009.05
2016-09-12T05:13:30.639Z,1009
2016-09-12T05:14:30.689Z,1009.03
2016-09-12T05:15:30.646Z,1009
2016-09-12T05:16:30.619Z,1009.04
2016-09-12T05:17:31.493Z,1009
2016-09-12T05:18:30.791Z,1009.03
2016-09-12T05:19:30.604Z,1009
2016-09-12T05:20:30.716Z,1009.03
2016-09-12T05:21:30.581Z,1009.06
2016-09-12T05:22:30.595Z,1009.09
2016-09-12T05:23:30.659Z,1009.08
2016-09-12T05:24:30.542Z,1009.07
2016-09-12T05:25:30.556Z,1009.06
2016-09-12T05:26:30.525Z,1009.08
2016-09-12T05:27:30.520Z,1009.1
2016-09-12T05:28:30.506Z,1009.12
2016-09-12T05:29:30.523Z,1009.1
2016-09-12T05:30:30.497Z,1009.15
2016-09-12T05:31:31.365Z,1009.12
2016-09-12T05:32:30.465Z,1009.13
2016-09-12T05:33:30.484Z,1009.12
2016-09-12T05:34:30.445Z,1009.16
2016-09-12T05:35:30.439Z,1009.17
2016-09-12T05:36:30.425Z,1009.16
2016-09-12T05:37:30.456Z,1009.19
2016-09-12T05:38:30.407Z,1009.18
2016-09-12T05:39:30.398Z,1009.2
2016-09-12T05:40:30.388Z,1009.18
2016-09-12T05:41:30.379Z,1009.19
2016-09-12T05:42:30.375Z,1009.18
2016-09-12T05:43:30.361Z,1009.14
2016-09-12T05:44:30.359Z,1009.14
2016-09-12T05:45:30.488Z,1009.16
2016-09-12T05:46:30.334Z,1009.17
2016-09-12T05:47:30.366Z,1009.18
2016-09-12T05:48:30.319Z,1009.22
2016-09-12T05:49:30.321Z,1009.19
2016-09-12T05:50:30.301Z,1009.23
2016-09-12T05:51:30.292Z,1009.21
2016-09-12T05:52:30.280Z,1009.19
2016-09-12T05:53:30.289Z,1009.18
2016-09-12T05:54:30.855Z,1009.21
2016-09-12T05:55:30.265Z,1009.25
2016-09-12T05:56:30.245Z,1009.25
2016-09-12T05:57:30.233Z,1009.26
2016-09-12T05:58:30.223Z,1009.24
2016-09-12T05:59:30.230Z,1009.29
2016-09-12T06:00:30.217Z,1009.29
2016-09-12T06:01:30.194Z,1009.27
2016-09-12T06:02:30.350Z,1009.28
2016-09-12T06:03:30.176Z,1009.28
2016-09-12T06:04:30.299Z,1009.26
2016-09-12T06:05:30.177Z,1009.25
2016-09-12T06:06:30.219Z,1009.23
2016-09-12T06:07:30.149Z,1009.26
2016-09-12T06:08:30.135Z,1009.22
2016-09-12T06:09:41.005Z,1009.21
2016-09-12T06:10:30.135Z,1009.16
2016-09-12T06:11:30.112Z,1009.21
2016-09-12T06:12:30.127Z,1009.18
2016-09-12T06:13:30.362Z,1009.22
2016-09-12T06:14:30.082Z,1009.22
2016-09-12T06:15:30.243Z,1009.25
2016-09-12T06:16:30.084Z,1009.21
2016-09-12T06:17:30.054Z,1009.22
2016-09-12T06:18:30.119Z,1009.2
2016-09-12T06:19:30.040Z,1009.22
2016-09-12T06:20:30.183Z,1009.24
2016-09-12T06:21:30.528Z,1009.24
2016-09-12T06:23:11.026Z,1009.26
2016-09-12T06:24:28.404Z,1009.24
2016-09-12T06:25:28.395Z,1009.27
2016-09-12T06:26:28.392Z,1009.31
2016-09-12T06:27:28.380Z,1009.29
2016-09-12T06:28:28.372Z,1009.29
2016-09-12T06:29:28.360Z,1009.27
2016-09-12T06:30:28.351Z,1009.26
2016-09-12T06:31:28.345Z,1009.3
2016-09-12T06:32:28.335Z,1009.25
2016-09-12T06:33:28.333Z,1009.28
2016-09-12T06:34:28.341Z,1009.24
2016-09-12T06:35:28.324Z,1009.24
2016-09-12T06:36:28.341Z,1009.24
2016-09-12T06:37:28.387Z,1009.23
2016-09-12T06:38:28.291Z,1009.26
2016-09-12T06:39:28.278Z,1009.26
2016-09-12T06:40:28.272Z,1009.24
2016-09-12T06:42:06.205Z,1009.29
2016-09-12T06:43:18.647Z,1009.32
2016-09-12T06:48:51.555Z,1009.32
2016-09-12T06:58:58.182Z,1009.4
2016-09-12T07:11:48.691Z,1009.42
2016-09-12T07:30:59.903Z,1009.49
2016-09-12T13:10:46.802Z,1008.47
2016-09-12T13:11:46.805Z,1008.4
2016-09-12T13:12:46.813Z,1008.45
2016-09-12T13:13:46.821Z,1008.38
2016-09-12T13:14:46.828Z,1008.39
2016-09-12T13:15:46.832Z,1008.39
2016-09-12T13:16:46.835Z,1008.36
2016-09-12T13:17:46.843Z,1008.35
2016-09-12T13:18:46.876Z,1008.36
2016-09-12T13:19:46.854Z,1008.37
2016-09-12T13:20:46.862Z,1008.35
2016-09-12T13:21:46.869Z,1008.38
2016-09-12T13:22:46.875Z,1008.31
2016-09-12T13:23:46.881Z,1008.3
2016-09-12T13:24:46.888Z,1008.32
2016-09-12T13:25:46.895Z,1008.3
2016-09-12T13:26:46.900Z,1008.31
2016-09-12T13:27:46.908Z,1008.3
2016-09-12T13:28:46.937Z,1008.28
2016-09-12T13:29:46.919Z,1008.3
2016-09-12T13:30:46.923Z,1008.29
2016-09-12T13:31:46.933Z,1008.26
2016-09-12T13:32:46.939Z,1008.28
2016-09-12T13:33:46.946Z,1008.24
2016-09-12T13:34:46.950Z,1008.22
2016-09-12T13:35:46.957Z,1008.23
2016-09-12T13:36:46.968Z,1008.2
2016-09-12T13:37:46.969Z,1008.25
2016-09-12T13:38:46.977Z,1008.22
2016-09-12T13:39:46.983Z,1008.26
2016-09-12T13:40:46.990Z,1008.26
2016-09-12T13:41:46.995Z,1008.21
2016-09-12T13:42:47.003Z,1008.19
2016-09-12T13:43:47.095Z,1008.16
2016-09-12T13:44:47.024Z,1008.21
2016-09-12T13:45:47.020Z,1008.2
2016-09-12T13:46:47.029Z,1008.22
2016-09-12T13:47:47.035Z,1008.2
2016-09-12T13:48:47.040Z,1008.23
2016-09-12T13:49:47.047Z,1008.19
2016-09-12T13:50:47.054Z,1008.17
2016-09-12T13:51:47.061Z,1008.18
2016-09-12T13:52:47.064Z,1008.21
2016-09-12T13:53:47.072Z,1008.22
2016-09-12T13:54:47.129Z,1008.19
2016-09-12T13:55:47.090Z,1008.19
2016-09-12T13:56:47.089Z,1008.17
2016-09-12T13:57:47.095Z,1008.21
2016-09-12T13:58:47.097Z,1008.22
2016-09-12T13:59:47.102Z,1008.21
2016-09-12T14:00:47.109Z,1008.19
2016-09-12T14:01:47.124Z,1008.18
2016-09-12T14:02:47.119Z,1008.16
2016-09-12T14:03:47.123Z,1008.16
2016-09-12T14:04:47.132Z,1008.12
2016-09-12T14:05:47.136Z,1008.15
2016-09-12T14:06:47.143Z,1008.12
2016-09-12T14:07:47.153Z,1008.12
2016-09-12T14:08:47.152Z,1008.13
2016-09-12T14:09:47.157Z,1008.11
2016-09-12T14:10:47.165Z,1008.11
2016-09-12T14:11:47.167Z,1008.09
2016-09-12T14:12:47.175Z,1008.09
2016-09-12T14:13:47.186Z,1008.12
2016-09-12T14:14:47.182Z,1008.1
2016-09-12T14:15:47.189Z,1008.09
2016-09-12T14:16:47.193Z,1008.07
2016-09-12T14:17:47.198Z,1008.04
2016-09-12T14:18:47.203Z,1008.03
2016-09-12T14:19:47.208Z,1008.01
2016-09-12T14:20:47.215Z,1008
2016-09-12T14:21:47.220Z,1008
2016-09-12T14:23:47.231Z,1008
2016-09-12T14:24:47.234Z,1008.02
2016-09-12T14:25:47.240Z,1007.99
2016-09-12T14:26:47.244Z,1007.97
2016-09-12T14:27:47.252Z,1008.01
2016-09-12T14:28:47.274Z,1007.98
2016-09-12T14:29:47.263Z,1007.97
2016-09-12T14:30:47.267Z,1007.96
2016-09-12T14:31:47.270Z,1007.94
2016-09-12T14:32:47.276Z,1007.91
2016-09-12T14:33:47.280Z,1007.95
2016-09-12T14:34:47.286Z,1007.94
2016-09-12T14:35:47.291Z,1007.95
2016-09-12T14:36:47.297Z,1007.9
2016-09-12T14:37:47.300Z,1007.87
2016-09-12T14:38:47.307Z,1007.92
2016-09-12T14:39:47.311Z,1007.91
2016-09-12T14:40:47.315Z,1007.88
2016-09-12T14:41:47.318Z,1007.92
2016-09-12T14:42:47.322Z,1007.89
2016-09-12T14:43:47.326Z,1007.93
2016-09-12T14:44:47.334Z,1007.93
2016-09-12T14:45:47.336Z,1007.92
2016-09-12T14:46:47.339Z,1007.87
2016-09-12T14:47:47.344Z,1007.86
2016-09-12T14:48:47.347Z,1007.86
2016-09-12T14:49:47.354Z,1007.88
2016-09-12T14:50:47.356Z,1007.88
2016-09-12T14:51:47.363Z,1007.93
2016-09-12T14:52:47.367Z,1007.9
2016-09-12T14:53:47.369Z,1007.88
2016-09-12T14:54:47.374Z,1007.87
2016-09-12T14:55:47.378Z,1007.88
2016-09-12T14:56:47.383Z,1007.89
2016-09-12T14:57:47.388Z,1007.91
2016-09-12T14:58:47.396Z,1007.86
2016-09-12T14:59:47.396Z,1007.92
2016-09-12T15:00:47.398Z,1007.93
2016-09-12T15:01:47.401Z,1007.94
2016-09-12T15:02:47.404Z,1007.91
2016-09-12T15:03:47.412Z,1007.9
2016-09-12T15:04:47.411Z,1007.91
2016-09-12T15:05:47.413Z,1007.88
2016-09-12T15:06:47.418Z,1007.93
2016-09-12T15:07:47.420Z,1007.89
2016-09-12T15:08:47.423Z,1007.89
2016-09-12T15:09:47.428Z,1007.82
2016-09-12T15:10:47.432Z,1007.84
2016-09-12T15:11:47.433Z,1007.86
2016-09-12T15:12:47.437Z,1007.83
2016-09-12T15:13:47.439Z,1007.84
2016-09-12T15:14:47.441Z,1007.81
2016-09-12T15:15:47.443Z,1007.76
2016-09-12T15:16:47.448Z,1007.75
2016-09-12T15:17:47.451Z,1007.8
2016-09-12T15:18:47.454Z,1007.78
2016-09-12T15:19:47.454Z,1007.76
2016-09-12T15:20:47.461Z,1007.79
2016-09-12T15:21:47.463Z,1007.77
2016-09-12T15:22:47.464Z,1007.8
2016-09-12T15:23:47.466Z,1007.77
2016-09-12T15:24:47.469Z,1007.74
2016-09-12T15:25:47.471Z,1007.76
2016-09-12T15:26:47.473Z,1007.71
2016-09-12T15:27:47.476Z,1007.75
2016-09-12T15:28:47.481Z,1007.69
2016-09-12T15:29:47.483Z,1007.74
2016-09-12T15:30:47.484Z,1007.72
2016-09-12T15:31:47.488Z,1007.72
2016-09-12T15:32:47.489Z,1007.71
2016-09-12T15:33:47.493Z,1007.69
2016-09-12T15:34:47.493Z,1007.69
2016-09-12T15:35:47.496Z,1007.65
2016-09-12T15:36:47.501Z,1007.64
2016-09-12T15:37:47.500Z,1007.66
2016-09-12T15:38:47.504Z,1007.62
2016-09-12T15:39:47.506Z,1007.63
2016-09-12T15:40:47.511Z,1007.63
2016-09-12T15:41:47.514Z,1007.63
2016-09-12T15:42:47.514Z,1007.65
2016-09-12T15:43:47.516Z,1007.64
2016-09-12T15:44:47.518Z,1007.61
2016-09-12T15:45:47.521Z,1007.65
2016-09-12T15:46:47.523Z,1007.63
2016-09-12T15:47:47.526Z,1007.61
2016-09-12T15:48:47.526Z,1007.6
2016-09-12T15:49:47.530Z,1007.6
2016-09-12T15:50:47.532Z,1007.58
2016-09-12T15:51:47.534Z,1007.6
2016-09-12T15:52:47.537Z,1007.59
2016-09-12T15:53:47.540Z,1007.55
2016-09-12T15:54:47.543Z,1007.59
2016-09-12T15:55:47.544Z,1007.6
2016-09-12T15:56:47.545Z,1007.61
2016-09-12T15:57:47.548Z,1007.58
2016-09-12T15:58:47.570Z,1007.55
2016-09-12T15:59:47.552Z,1007.59
2016-09-12T16:00:47.553Z,1007.56
2016-09-12T16:01:47.586Z,1007.57
2016-09-12T16:02:47.560Z,1007.54
2016-09-12T16:03:47.560Z,1007.56
2016-09-12T16:04:47.568Z,1007.51
2016-09-12T16:05:47.575Z,1007.55
2016-09-12T16:06:47.564Z,1007.55
2016-09-12T16:07:47.567Z,1007.51
2016-09-12T16:08:47.573Z,1007.54
2016-09-12T16:09:47.572Z,1007.56
2016-09-12T16:10:47.578Z,1007.54
2016-09-12T16:11:47.576Z,1007.54
2016-09-12T16:12:47.574Z,1007.54
2016-09-12T16:13:47.580Z,1007.54
2016-09-12T16:14:47.576Z,1007.53
2016-09-12T16:15:47.580Z,1007.57
2016-09-12T16:16:47.583Z,1007.56
2016-09-12T16:17:47.596Z,1007.56
2016-09-12T16:18:47.583Z,1007.57
2016-09-12T16:19:47.584Z,1007.58
2016-09-12T16:20:47.587Z,1007.56
2016-09-12T16:21:47.589Z,1007.59
2016-09-12T16:22:47.589Z,1007.54
2016-09-12T16:23:47.585Z,1007.62
2016-09-12T16:24:47.589Z,1007.58
2016-09-12T16:25:47.588Z,1007.55
2016-09-12T16:26:47.589Z,1007.53
2016-09-12T16:27:47.589Z,1007.56
2016-09-12T16:28:47.590Z,1007.56
2016-09-12T16:29:47.591Z,1007.54
2016-09-12T16:30:47.599Z,1007.54
2016-09-12T16:31:47.591Z,1007.57
2016-09-12T16:32:47.591Z,1007.58
2016-09-12T16:33:47.589Z,1007.57
2016-09-12T16:34:47.591Z,1007.53
2016-09-12T16:35:47.590Z,1007.59
2016-09-12T16:36:47.590Z,1007.55
2016-09-12T16:37:47.592Z,1007.56
2016-09-12T16:38:47.592Z,1007.55
2016-09-12T16:39:47.592Z,1007.51
2016-09-12T16:40:47.589Z,1007.52
2016-09-12T16:41:47.590Z,1007.51
2016-09-12T16:42:47.587Z,1007.56
2016-09-12T16:43:47.587Z,1007.55
2016-09-12T16:44:47.586Z,1007.54
2016-09-12T16:45:47.585Z,1007.52
2016-09-12T16:46:47.585Z,1007.56
2016-09-12T16:47:47.583Z,1007.51
2016-09-12T16:48:47.586Z,1007.54
2016-09-12T16:49:47.582Z,1007.53
2016-09-12T16:50:47.578Z,1007.58
2016-09-12T16:51:47.579Z,1007.55
2016-09-12T16:52:47.577Z,1007.56
2016-09-12T16:53:47.577Z,1007.56
2016-09-12T16:54:47.573Z,1007.54
2016-09-12T16:55:47.574Z,1007.53
2016-09-12T16:56:47.570Z,1007.53
2016-09-12T16:57:47.570Z,1007.52
2016-09-12T16:58:47.567Z,1007.55
2016-09-12T16:59:47.584Z,1007.58
2016-09-12T17:00:47.564Z,1007.57
2016-09-12T17:01:47.566Z,1007.57
2016-09-12T17:02:47.561Z,1007.51
2016-09-12T17:03:47.560Z,1007.53
2016-09-12T17:04:47.557Z,1007.53
2016-09-12T17:05:47.554Z,1007.47
2016-09-12T17:06:47.551Z,1007.48
2016-09-12T17:07:47.552Z,1007.48
2016-09-12T17:08:47.547Z,1007.43
2016-09-12T17:09:47.563Z,1007.45
2016-09-12T17:10:47.547Z,1007.45
2016-09-12T17:11:47.541Z,1007.42
2016-09-12T17:12:47.539Z,1007.46
2016-09-12T17:13:47.537Z,1007.45
2016-09-12T17:14:47.534Z,1007.46
2016-09-12T17:15:47.533Z,1007.42
2016-09-12T17:16:47.530Z,1007.4
2016-09-12T17:17:47.527Z,1007.4
2016-09-12T17:18:47.524Z,1007.41
2016-09-12T17:19:47.521Z,1007.4
2016-09-12T17:20:47.519Z,1007.4
2016-09-12T17:21:47.515Z,1007.38
2016-09-12T17:22:47.514Z,1007.41
2016-09-12T17:23:47.512Z,1007.4
2016-09-12T17:24:47.508Z,1007.4
2016-09-12T17:25:47.504Z,1007.39
2016-09-12T17:26:47.505Z,1007.38
2016-09-12T17:27:47.501Z,1007.37
2016-09-12T17:28:47.497Z,1007.37
2016-09-12T17:29:47.494Z,1007.39
2016-09-12T17:30:47.490Z,1007.41
2016-09-12T17:31:47.487Z,1007.39
2016-09-12T17:32:47.484Z,1007.42
2016-09-12T17:33:47.488Z,1007.4
2016-09-12T17:34:47.478Z,1007.38
2016-09-12T17:35:47.474Z,1007.38
2016-09-12T17:36:47.472Z,1007.4
2016-09-12T17:37:47.468Z,1007.37
2016-09-12T17:38:47.464Z,1007.43
2016-09-12T17:39:47.462Z,1007.43
2016-09-12T17:40:47.458Z,1007.43
2016-09-12T17:41:47.455Z,1007.4
2016-09-12T17:42:47.452Z,1007.43
2016-09-12T17:43:47.449Z,1007.41
2016-09-12T17:44:47.444Z,1007.41
2016-09-12T17:45:47.442Z,1007.39
2016-09-12T17:46:47.438Z,1007.38
2016-09-12T17:47:47.437Z,1007.39
2016-09-12T17:48:47.431Z,1007.37
2016-09-12T17:49:47.426Z,1007.38
2016-09-12T17:50:47.425Z,1007.36
2016-09-12T17:51:47.420Z,1007.41
2016-09-12T17:52:47.420Z,1007.39
2016-09-12T17:53:47.620Z,1007.37
2016-09-12T17:54:47.415Z,1007.38
2016-09-12T17:55:47.408Z,1007.38
2016-09-12T17:56:47.402Z,1007.4
2016-09-12T17:57:47.400Z,1007.41
2016-09-12T17:58:47.396Z,1007.4
2016-09-12T17:59:47.397Z,1007.43
2016-09-12T18:00:47.387Z,1007.41
2016-09-12T18:01:47.410Z,1007.43
2016-09-12T18:02:47.381Z,1007.43
2016-09-12T18:03:47.377Z,1007.41
2016-09-12T18:04:47.374Z,1007.42
2016-09-12T18:05:47.369Z,1007.44
2016-09-12T18:06:47.366Z,1007.44
2016-09-12T18:07:47.361Z,1007.48
2016-09-12T18:08:47.369Z,1007.44
2016-09-12T18:09:47.355Z,1007.45
2016-09-12T18:10:47.351Z,1007.46
2016-09-12T18:11:47.347Z,1007.43
2016-09-12T18:12:47.341Z,1007.44
2016-09-12T18:13:47.389Z,1007.47
2016-09-12T18:14:47.336Z,1007.48
2016-09-12T18:15:47.335Z,1007.5
2016-09-12T18:16:47.345Z,1007.51
2016-09-12T18:17:47.323Z,1007.52
2016-09-12T18:18:47.317Z,1007.54
2016-09-12T18:19:47.312Z,1007.51
2016-09-12T18:20:47.311Z,1007.5
2016-09-12T18:21:47.307Z,1007.52
2016-09-12T18:22:47.302Z,1007.52
2016-09-12T18:23:47.297Z,1007.53
2016-09-12T18:24:47.293Z,1007.57
2016-09-12T18:25:47.287Z,1007.54
2016-09-12T18:26:47.284Z,1007.56
2016-09-12T18:27:47.279Z,1007.56
2016-09-12T18:28:47.277Z,1007.56
2016-09-12T18:29:47.271Z,1007.54
2016-09-12T18:30:47.267Z,1007.54
2016-09-12T18:31:47.263Z,1007.54
2016-09-12T18:32:47.263Z,1007.57
2016-09-12T18:33:47.255Z,1007.54